createdAt,value
2019-04-11T00:01:34.238Z,36.70
2019-04-11T00:03:53.588Z,36.80
2019-04-11T00:06:23.464Z,36.80
2019-04-11T00:08:52.747Z,36.80
2019-04-11T00:11:22.452Z,36.80
2019-04-11T00:13:51.542Z,36.90
2019-04-11T00:16:21.175Z,36.80
2019-04-11T00:18:51.291Z,37.00
2019-04-11T00:21:20.410Z,36.90
2019-04-11T00:23:50.197Z,37.00
2019-04-11T00:26:20.081Z,37.20
2019-04-11T00:28:50.006Z,37.20
2019-04-11T00:31:18.929Z,37.30
2019-04-11T00:33:48.695Z,37.50
2019-04-11T00:36:17.705Z,37.40
2019-04-11T00:38:46.356Z,37.60
2019-04-11T00:41:15.510Z,37.60
2019-04-11T00:43:45.396Z,37.60
2019-04-11T00:46:14.362Z,37.60
2019-04-11T00:48:43.911Z,37.70
2019-04-11T00:51:13.884Z,37.80
2019-04-11T00:53:42.589Z,37.80
2019-04-11T00:56:12.420Z,37.80
2019-04-11T00:58:41.930Z,37.70
2019-04-11T01:01:11.410Z,37.80
2019-04-11T01:03:40.165Z,37.80
2019-04-11T01:06:10.041Z,37.90
2019-04-11T01:08:39.854Z,37.90
2019-04-11T01:11:09.882Z,38.00
2019-04-11T01:13:45.230Z,38.10
2019-04-11T01:16:20.217Z,38.20
2019-04-11T01:18:49.985Z,38.20
2019-04-11T01:21:19.941Z,38.20
2019-04-11T01:23:48.705Z,38.30
2019-04-11T01:26:19.072Z,38.40
2019-04-11T01:28:49.063Z,38.60
2019-04-11T01:31:19.726Z,38.50
2019-04-11T01:33:48.889Z,38.50
2019-04-11T01:36:18.541Z,38.60
2019-04-11T01:38:51.274Z,38.70
2019-04-11T01:41:20.526Z,38.70
2019-04-11T01:43:56.411Z,38.70
2019-04-11T01:46:20.175Z,38.70
2019-04-11T01:49:14.299Z,38.80
2019-04-11T01:51:43.340Z,38.70
2019-04-11T01:54:13.263Z,38.90
2019-04-11T01:56:42.191Z,38.90
2019-04-11T01:59:31.255Z,39.10
2019-04-11T02:02:39.407Z,39.10
2019-04-11T02:08:17.459Z,39.10
2019-04-11T02:10:59.337Z,39.10
2019-04-11T02:13:41.730Z,39.10
2019-04-11T02:16:23.070Z,39.10
2019-04-11T02:19:04.305Z,39.40
2019-04-11T02:21:46.172Z,39.40
2019-04-11T02:24:46.165Z,39.30
2019-04-11T02:27:28.506Z,39.40
2019-04-11T02:30:11.211Z,39.50
2019-04-11T02:32:42.681Z,39.50
2019-04-11T02:35:13.267Z,39.60
2019-04-11T02:38:00.993Z,39.50
2019-04-11T02:40:30.629Z,39.60
2019-04-11T02:43:00.318Z,39.80
2019-04-11T02:45:43.331Z,39.90
2019-04-11T02:48:01.572Z,39.90
2019-04-11T02:50:32.192Z,39.80
2019-04-11T02:53:02.712Z,39.80
2019-04-11T02:55:31.751Z,39.90
2019-04-11T02:58:20.579Z,40.00
2019-04-11T03:00:50.242Z,39.80
2019-04-11T03:03:20.901Z,39.90
2019-04-11T03:05:50.815Z,40.00
2019-04-11T03:08:21.972Z,40.00
2019-04-11T03:10:51.459Z,40.00
2019-04-11T03:13:21.067Z,40.10
2019-04-11T03:16:07.222Z,40.10
2019-04-11T03:18:59.190Z,40.30
2019-04-11T03:21:16.375Z,40.30
2019-04-11T03:23:43.805Z,40.30
2019-04-11T03:26:14.131Z,40.30
2019-04-11T03:28:46.809Z,40.30
2019-04-11T03:31:53.727Z,40.20
2019-04-11T03:39:05.715Z,40.20
2019-04-11T03:41:32.057Z,40.20
2019-04-11T03:43:57.703Z,40.20
2019-04-11T03:46:34.025Z,40.50
2019-04-11T03:49:22.625Z,40.60
2019-04-11T03:51:40.454Z,40.60
2019-04-11T03:54:09.848Z,40.70
2019-04-11T03:56:41.029Z,40.70
2019-04-11T03:59:12.393Z,40.80
2019-04-11T04:02:00.062Z,40.60
2019-04-11T04:04:49.376Z,40.70
2019-04-11T04:07:38.380Z,40.60
2019-04-11T04:10:25.630Z,40.80
2019-04-11T04:13:10.999Z,40.90
2019-04-11T04:18:58.453Z,40.90
2019-04-11T04:22:07.148Z,40.90
2019-04-11T04:24:56.157Z,41.00
2019-04-11T04:27:46.836Z,41.10
2019-04-11T04:30:18.092Z,41.00
2019-04-11T04:33:07.115Z,41.10
2019-04-11T04:35:36.717Z,41.00
2019-04-11T04:38:07.431Z,41.10
2019-04-11T04:40:50.982Z,41.00
2019-04-11T04:43:27.497Z,41.00
2019-04-11T04:46:13.594Z,41.00
2019-04-11T04:48:29.363Z,41.00
2019-04-11T04:51:03.335Z,41.10
2019-04-11T04:53:49.905Z,41.10
2019-04-11T04:56:24.015Z,41.10
2019-04-11T04:58:50.804Z,41.10
2019-04-11T05:01:21.753Z,41.00
2019-04-11T05:03:51.039Z,41.10
2019-04-11T05:06:40.692Z,41.10
2019-04-11T05:09:10.679Z,41.00
2019-04-11T05:11:40.016Z,41.10
2019-04-11T05:14:29.532Z,41.20
2019-04-11T05:17:19.246Z,41.20
2019-04-11T05:19:48.805Z,41.10
2019-04-11T05:22:17.585Z,41.10
2019-04-11T05:24:47.439Z,41.30
2019-04-11T05:27:17.452Z,41.20
2019-04-11T05:29:47.591Z,41.20
2019-04-11T05:32:16.501Z,41.00
2019-04-11T05:34:45.645Z,41.20
2019-04-11T05:37:15.312Z,41.20
2019-04-11T05:39:44.971Z,41.20
2019-04-11T05:42:17.767Z,41.10
2019-04-11T05:45:05.308Z,41.10
2019-04-11T05:47:55.567Z,41.10
2019-04-11T05:50:34.074Z,41.20
2019-04-11T05:53:05.487Z,41.20
2019-04-11T05:55:43.090Z,41.10
2019-04-11T05:58:12.746Z,41.10
2019-04-11T06:00:53.329Z,41.00
2019-04-11T06:03:23.885Z,41.20
2019-04-11T06:06:07.225Z,41.20
2019-04-11T06:08:36.101Z,41.10
2019-04-11T06:11:24.036Z,41.20
2019-04-11T06:14:05.689Z,41.00
2019-04-11T06:16:39.794Z,41.20
2019-04-11T06:19:23.358Z,41.00
2019-04-11T06:21:56.080Z,41.00
2019-04-11T06:24:56.539Z,41.00
2019-04-11T06:27:33.591Z,41.00
2019-04-11T06:30:21.139Z,40.80
2019-04-11T06:32:58.415Z,40.80
2019-04-11T06:36:05.755Z,40.70
2019-04-11T06:38:47.221Z,40.70
2019-04-11T06:41:34.936Z,40.80
2019-04-11T06:44:12.947Z,40.80
2019-04-11T06:47:02.236Z,40.60
2019-04-11T06:49:39.502Z,40.60
2019-04-11T06:52:08.733Z,40.70
2019-04-11T06:55:02.565Z,40.60
2019-04-11T06:57:32.116Z,40.70
2019-04-11T07:00:01.448Z,40.50
2019-04-11T07:02:32.027Z,40.40
2019-04-11T07:05:04.546Z,40.40
2019-04-11T07:07:35.991Z,40.20
2019-04-11T07:10:06.816Z,40.30
2019-04-11T07:12:41.294Z,40.20
2019-04-11T07:15:29.366Z,40.40
2019-04-11T07:18:18.333Z,40.30
2019-04-11T07:20:52.800Z,40.10
2019-04-11T07:23:59.823Z,39.80
2019-04-11T07:27:03.117Z,39.80
2019-04-11T07:29:56.542Z,40.00
2019-04-11T07:32:27.937Z,40.10
2019-04-11T07:35:39.822Z,40.20
2019-04-11T07:38:36.518Z,40.20
2019-04-11T07:41:24.345Z,40.10
2019-04-11T07:43:52.959Z,40.30
2019-04-11T07:46:39.073Z,40.30
2019-04-11T07:49:08.549Z,40.10
2019-04-11T07:51:48.514Z,40.00
2019-04-11T07:54:22.532Z,40.00
2019-04-11T07:56:58.696Z,39.90
2019-04-11T07:59:46.817Z,39.60
2019-04-11T08:02:35.519Z,39.60
2019-04-11T08:05:32.355Z,39.60
2019-04-11T08:08:21.406Z,39.40
2019-04-11T08:11:09.618Z,39.10
2019-04-11T08:14:22.775Z,39.10
2019-04-11T08:17:36.656Z,39.20
2019-04-11T08:20:19.310Z,39.10
2019-04-11T08:23:05.678Z,39.00
2019-04-11T08:25:53.724Z,38.90
2019-04-11T08:28:43.501Z,38.50
2019-04-11T08:31:53.842Z,38.00
2019-04-11T08:34:23.585Z,38.60
2019-04-11T08:37:12.035Z,38.00
2019-04-11T08:39:44.991Z,37.90
2019-04-11T08:42:52.850Z,37.50
2019-04-11T08:45:46.477Z,37.20
2019-04-11T08:48:37.228Z,36.70
2019-04-11T08:51:08.245Z,36.50
2019-04-11T08:56:56.254Z,35.80
2019-04-11T09:00:04.171Z,35.60
2019-04-11T09:03:01.803Z,35.20
2019-04-11T09:05:38.708Z,34.90
2019-04-11T09:08:32.650Z,34.30
2019-04-11T09:11:37.884Z,34.20
2019-04-11T09:14:22.219Z,33.80
2019-04-11T09:17:01.758Z,33.50
2019-04-11T09:19:45.345Z,33.40
2019-04-11T09:22:49.070Z,33.20
2019-04-11T09:25:43.609Z,32.90
2019-04-11T09:28:27.147Z,32.60
2019-04-11T09:31:21.398Z,32.40
2019-04-11T09:34:01.675Z,32.10
2019-04-11T09:37:03.057Z,31.80
2019-04-11T09:40:03.725Z,31.60
2019-04-11T09:43:07.450Z,31.40
2019-04-11T09:45:52.405Z,31.10
2019-04-11T09:48:44.322Z,30.90
2019-04-11T09:51:38.302Z,30.50
2019-04-11T09:54:32.449Z,30.40
2019-04-11T09:57:34.539Z,30.40
2019-04-11T10:00:22.962Z,30.00
2019-04-11T10:02:58.546Z,30.00
2019-04-11T10:05:35.155Z,30.40
2019-04-11T10:08:20.946Z,30.80
2019-04-11T10:11:08.028Z,30.80
2019-04-11T10:13:53.255Z,30.40
2019-04-11T10:16:53.805Z,30.00
2019-04-11T10:19:42.358Z,29.50
2019-04-11T10:22:40.380Z,29.40
2019-04-11T10:25:43.430Z,29.20
2019-04-11T10:28:25.748Z,28.90
2019-04-11T10:31:12.619Z,29.20
2019-04-11T10:34:19.620Z,29.40
2019-04-11T10:37:01.337Z,29.60
2019-04-11T10:40:01.849Z,29.90
2019-04-11T10:42:31.308Z,30.00
2019-04-11T10:45:25.122Z,30.00
2019-04-11T10:47:57.602Z,29.70
2019-04-11T10:50:44.473Z,29.00
2019-04-11T10:53:13.317Z,28.60
2019-04-11T10:56:10.681Z,28.30
2019-04-11T10:58:51.274Z,28.00
2019-04-11T11:01:37.952Z,27.60
2019-04-11T11:04:12.174Z,27.30
2019-04-11T11:06:41.975Z,27.00
2019-04-11T11:09:30.679Z,27.10
2019-04-11T11:12:19.078Z,27.30
2019-04-11T11:15:05.738Z,27.50
2019-04-11T11:18:34.965Z,27.80
2019-04-11T11:20:58.286Z,28.10
2019-04-11T11:23:42.845Z,28.20
2019-04-11T11:26:14.486Z,27.90
2019-04-11T11:28:48.965Z,27.80
2019-04-11T11:31:36.284Z,27.30
2019-04-11T11:34:07.193Z,26.70
2019-04-11T11:37:05.395Z,27.00
2019-04-11T11:39:52.077Z,25.20
2019-04-11T11:42:39.056Z,25.60
2019-04-11T11:45:16.020Z,25.90
2019-04-11T11:48:13.706Z,25.70
2019-04-11T11:50:39.741Z,25.70
2019-04-11T11:53:34.875Z,24.50
2019-04-11T11:56:05.385Z,23.60
2019-04-11T11:58:56.971Z,20.70
2019-04-11T12:01:24.048Z,19.60
2019-04-11T12:04:09.073Z,21.50
2019-04-11T12:06:38.871Z,23.10
2019-04-11T12:09:32.493Z,24.30
2019-04-11T12:12:06.495Z,25.20
2019-04-11T12:15:07.663Z,25.80
2019-04-11T12:17:55.958Z,26.30
2019-04-11T12:20:34.691Z,26.80
2019-04-11T12:23:07.387Z,27.40
2019-04-11T12:25:39.037Z,27.70
2019-04-11T12:28:29.733Z,27.90
2019-04-11T12:31:03.876Z,28.10
2019-04-11T12:33:54.294Z,28.20
2019-04-11T12:36:26.477Z,28.50
2019-04-11T12:39:28.665Z,28.60
2019-04-11T12:42:09.536Z,28.80
2019-04-11T12:44:46.228Z,28.90
2019-04-11T12:47:23.453Z,28.90
2019-04-11T12:50:29.120Z,29.10
2019-04-11T12:53:25.777Z,29.20
2019-04-11T12:56:08.801Z,29.20
2019-04-11T12:59:05.775Z,29.20
2019-04-11T13:01:52.358Z,29.10
2019-04-11T13:04:27.997Z,29.10
2019-04-11T13:07:33.742Z,29.10
2019-04-11T13:10:28.981Z,28.90
2019-04-11T13:13:19.717Z,28.80
2019-04-11T13:16:11.327Z,28.60
2019-04-11T13:18:56.581Z,28.40
2019-04-11T13:21:28.729Z,28.40
2019-04-11T13:24:31.711Z,28.50
2019-04-11T13:27:18.057Z,28.60
2019-04-11T13:30:06.054Z,28.70
2019-04-11T13:32:48.890Z,28.60
2019-04-11T13:35:39.711Z,28.60
2019-04-11T13:38:10.809Z,28.50
2019-04-11T13:41:01.439Z,28.30
2019-04-11T13:43:34.023Z,28.10
2019-04-11T13:46:20.469Z,27.10
2019-04-11T13:49:06.942Z,26.80
2019-04-11T13:51:55.266Z,26.60
2019-04-11T13:54:50.473Z,26.50
2019-04-11T13:57:56.765Z,26.70
2019-04-11T14:00:43.402Z,27.00
2019-04-11T14:03:43.925Z,27.20
2019-04-11T14:06:38.421Z,27.30
2019-04-11T14:09:16.089Z,27.30
2019-04-11T14:11:49.091Z,27.20
2019-04-11T14:14:21.090Z,27.30
2019-04-11T14:16:58.450Z,27.50
2019-04-11T14:19:52.451Z,27.70
2019-04-11T14:22:27.757Z,27.90
2019-04-11T14:25:31.272Z,28.00
2019-04-11T14:31:47.252Z,28.40
2019-04-11T14:34:54.306Z,28.40
2019-04-11T14:37:46.018Z,28.50
2019-04-11T14:41:01.631Z,28.60
2019-04-11T14:43:29.590Z,28.70
2019-04-11T14:46:23.319Z,28.70
2019-04-11T14:49:10.218Z,28.90
2019-04-11T14:52:17.275Z,29.10
2019-04-11T14:55:05.139Z,29.10
2019-04-11T14:57:56.022Z,29.30
2019-04-11T15:00:44.314Z,29.30
2019-04-11T15:03:51.598Z,29.50
2019-04-11T15:06:40.530Z,29.60
2019-04-11T15:09:47.591Z,29.50
2019-04-11T15:12:36.015Z,29.60
2019-04-11T15:15:24.509Z,29.80
2019-04-11T15:17:56.471Z,29.80
2019-04-11T15:20:33.830Z,29.90
2019-04-11T15:23:08.799Z,30.00
2019-04-11T15:26:01.054Z,30.10
2019-04-11T15:28:49.027Z,30.20
2019-04-11T15:31:59.511Z,30.40
2019-04-11T15:34:46.499Z,30.50
2019-04-11T15:37:53.538Z,30.70
2019-04-11T15:43:57.772Z,30.80
2019-04-11T15:46:47.904Z,31.00
2019-04-11T15:49:35.511Z,30.80
2019-04-11T15:52:23.895Z,31.00
2019-04-11T15:55:08.898Z,30.90
2019-04-11T15:57:42.904Z,30.90
2019-04-11T16:00:31.004Z,30.90
2019-04-11T16:03:05.115Z,30.90
2019-04-11T16:05:54.170Z,30.90
2019-04-11T16:08:54.129Z,31.10
2019-04-11T16:11:53.783Z,31.10
2019-04-11T16:14:30.843Z,31.20
2019-04-11T16:17:18.623Z,31.20
2019-04-11T16:20:26.464Z,31.20
2019-04-11T16:23:14.086Z,31.20
2019-04-11T16:25:45.866Z,31.30
2019-04-11T16:28:35.817Z,31.30
2019-04-11T16:31:28.066Z,31.40
2019-04-11T16:34:31.307Z,31.40
2019-04-11T16:37:03.003Z,31.50
2019-04-11T16:39:52.069Z,31.60
2019-04-11T16:42:40.809Z,31.80
2019-04-11T16:45:40.710Z,31.90
2019-04-11T16:48:09.662Z,31.90
2019-04-11T16:50:38.566Z,32.00
2019-04-11T16:53:10.448Z,31.90
2019-04-11T16:55:42.048Z,31.90
2019-04-11T16:58:08.727Z,31.80
2019-04-11T17:00:37.389Z,31.90
2019-04-11T17:03:06.039Z,31.90
2019-04-11T17:05:36.334Z,31.90
2019-04-11T17:08:14.063Z,32.10
2019-04-11T17:10:59.439Z,32.10
2019-04-11T17:13:28.999Z,32.10
2019-04-11T17:16:00.116Z,32.10
2019-04-11T17:18:29.012Z,32.10
2019-04-11T17:20:57.899Z,32.20
2019-04-11T17:23:26.622Z,32.20
2019-04-11T17:25:55.234Z,32.10
2019-04-11T17:28:27.970Z,32.20
2019-04-11T17:30:56.732Z,32.20
2019-04-11T17:33:28.559Z,32.30
2019-04-11T17:35:56.450Z,32.30
2019-04-11T17:38:25.473Z,32.40
2019-04-11T17:40:54.443Z,32.50
2019-04-11T17:43:23.745Z,32.60
2019-04-11T17:45:56.902Z,32.50
2019-04-11T17:48:23.791Z,32.60
2019-04-11T17:50:52.521Z,32.60
2019-04-11T17:53:22.630Z,32.60
2019-04-11T17:55:54.272Z,32.60
2019-04-11T17:58:27.004Z,32.70
2019-04-11T18:01:00.197Z,32.70
2019-04-11T18:03:28.364Z,32.80
2019-04-11T18:05:57.122Z,32.80
2019-04-11T18:08:25.886Z,32.80
2019-04-11T18:10:55.998Z,32.80
2019-04-11T18:13:25.432Z,33.00
2019-04-11T18:15:54.183Z,33.00
2019-04-11T18:18:23.231Z,32.90
2019-04-11T18:20:52.650Z,32.90
2019-04-11T18:23:21.568Z,33.00
2019-04-11T18:25:51.139Z,33.10
2019-04-11T18:28:21.971Z,33.20
2019-04-11T18:30:53.723Z,33.30
2019-04-11T18:33:22.313Z,33.30
2019-04-11T18:35:51.300Z,33.30
2019-04-11T18:38:20.984Z,33.30
2019-04-11T18:40:50.149Z,33.30
2019-04-11T18:43:18.873Z,33.30
2019-04-11T18:45:47.867Z,33.20
2019-04-11T18:48:16.916Z,33.40
2019-04-11T18:50:45.761Z,33.50
2019-04-11T18:53:14.523Z,33.50
2019-04-11T18:55:43.396Z,33.70
2019-04-11T18:58:12.565Z,33.60
2019-04-11T19:00:41.361Z,33.60
2019-04-11T19:03:10.418Z,33.70
2019-04-11T19:05:42.796Z,33.70
2019-04-11T19:08:12.913Z,33.70
2019-04-11T19:10:42.924Z,33.80
2019-04-11T19:13:11.392Z,33.90
2019-04-11T19:15:40.125Z,33.90
2019-04-11T19:18:09.072Z,33.90
2019-04-11T19:20:37.806Z,33.90
2019-04-11T19:23:08.031Z,33.90
2019-04-11T19:25:37.356Z,34.00
2019-04-11T19:28:06.103Z,34.10
2019-04-11T19:30:34.836Z,34.10
2019-04-11T19:33:03.574Z,34.00
2019-04-11T19:35:32.262Z,34.10
2019-04-11T19:38:00.966Z,34.10
2019-04-11T19:40:30.586Z,34.10
2019-04-11T19:42:59.379Z,34.10
2019-04-11T19:45:31.873Z,34.10
2019-04-11T19:48:00.645Z,34.20
2019-04-11T19:50:29.849Z,34.30
2019-04-11T19:53:02.603Z,34.40
2019-04-11T19:55:49.030Z,34.30
2019-04-11T19:58:19.629Z,34.30
2019-04-11T20:00:53.047Z,34.40
2019-04-11T20:03:21.837Z,34.50
2019-04-11T20:05:50.223Z,34.40
2019-04-11T20:08:18.951Z,34.50
2019-04-11T20:10:47.675Z,34.50
2019-04-11T20:13:16.459Z,34.50
2019-04-11T20:15:46.011Z,34.60
2019-04-11T20:18:15.200Z,34.70
2019-04-11T20:20:44.220Z,34.60
2019-04-11T20:23:13.327Z,34.70
2019-04-11T20:25:46.271Z,34.70
2019-04-11T20:28:12.610Z,34.70
2019-04-11T20:30:41.931Z,34.80
2019-04-11T20:33:10.985Z,34.80
2019-04-11T20:35:40.608Z,34.80
2019-04-11T20:38:09.500Z,35.00
2019-04-11T20:40:39.308Z,34.90
2019-04-11T20:43:10.103Z,35.00
2019-04-11T20:45:39.930Z,34.90
2019-04-11T20:48:09.403Z,35.00
2019-04-11T20:50:38.504Z,35.00
2019-04-11T20:53:12.621Z,35.00
2019-04-11T20:55:39.341Z,35.10
2019-04-11T20:58:10.366Z,35.20
2019-04-11T21:00:50.461Z,35.10
2019-04-11T21:03:11.416Z,35.00
2019-04-11T21:05:40.283Z,35.00
2019-04-11T21:08:09.017Z,35.20
2019-04-11T21:10:37.860Z,35.30
2019-04-11T21:13:07.738Z,35.30
2019-04-11T21:15:36.592Z,35.40
2019-04-11T21:18:05.563Z,35.40
2019-04-11T21:20:34.380Z,35.40
2019-04-11T21:23:03.663Z,35.40
2019-04-11T21:25:32.575Z,35.40
2019-04-11T21:28:01.630Z,35.40
2019-04-11T21:30:31.185Z,35.50
2019-04-11T21:33:01.172Z,35.50
2019-04-11T21:35:30.985Z,35.50
2019-04-11T21:38:01.068Z,35.50
2019-04-11T21:40:30.027Z,35.60
2019-04-11T21:42:59.649Z,35.60
2019-04-11T21:45:29.289Z,35.60
2019-04-11T21:47:58.435Z,35.60
2019-04-11T21:50:27.872Z,35.60
2019-04-11T21:52:56.899Z,35.70
2019-04-11T21:55:26.382Z,35.70
2019-04-11T21:57:56.054Z,35.70
2019-04-11T22:00:33.823Z,35.80
2019-04-11T22:03:02.719Z,35.80
2019-04-11T22:05:32.400Z,35.80
2019-04-11T22:08:03.707Z,35.90
2019-04-11T22:10:31.908Z,35.80
2019-04-11T22:13:01.187Z,35.90
2019-04-11T22:15:30.364Z,36.00
2019-04-11T22:17:59.260Z,35.90
2019-04-11T22:20:27.995Z,35.90
2019-04-11T22:22:57.498Z,35.90
2019-04-11T22:25:26.390Z,35.90
2019-04-11T22:27:55.236Z,36.00
2019-04-11T22:30:25.337Z,36.10
2019-04-11T22:33:13.399Z,36.10
2019-04-11T22:35:42.163Z,36.00
2019-04-11T22:38:10.923Z,36.10
2019-04-11T22:40:39.711Z,36.20
2019-04-11T22:43:09.057Z,36.10
2019-04-11T22:45:38.430Z,36.10
2019-04-11T22:48:08.807Z,36.10
2019-04-11T22:50:40.758Z,36.10
2019-04-11T22:53:12.830Z,36.30
2019-04-11T22:55:41.330Z,36.30
2019-04-11T22:58:13.962Z,36.20
2019-04-11T23:00:45.126Z,36.20
2019-04-11T23:03:49.059Z,36.30
2019-04-11T23:06:18.072Z,36.40
2019-04-11T23:08:48.963Z,36.50
2019-04-11T23:11:18.439Z,36.50
2019-04-11T23:13:47.768Z,36.60
2019-04-11T23:16:16.544Z,36.40
2019-04-11T23:18:45.995Z,36.50
2019-04-11T23:21:15.415Z,36.60
2019-04-11T23:23:44.978Z,36.50
2019-04-11T23:26:14.345Z,36.60
2019-04-11T23:28:45.851Z,36.50
2019-04-11T23:31:14.639Z,36.70
2019-04-11T23:33:44.501Z,36.60
2019-04-11T23:36:13.243Z,36.60
2019-04-11T23:38:42.375Z,36.60
2019-04-11T23:41:11.684Z,36.60
2019-04-11T23:43:40.506Z,36.70
2019-04-11T23:46:09.602Z,36.70
2019-04-11T23:48:38.372Z,36.70
2019-04-11T23:51:07.200Z,36.70
2019-04-11T23:53:36.010Z,36.70
2019-04-11T23:56:05.008Z,36.80
2019-04-11T23:58:34.291Z,36.80
